sensor_id;sensor_type;location;lat;lon;timestamp;temperature;humidity
29551;DHT22;16488;52.396;10.696;2023-07-13T00:02:06;15.10;99.90
29551;DHT22;16488;52.396;10.696;2023-07-13T00:04:32;15.10;99.90
29551;DHT22;16488;52.396;10.696;2023-07-13T00:06:57;15.10;99.90
29551;DHT22;16488;52.396;10.696;2023-07-13T00:09:23;15.10;99.90
29551;DHT22;16488;52.396;10.696;2023-07-13T00:11:55;15.00;99.90
29551;DHT22;16488;52.396;10.696;2023-07-13T00:14:22;15.00;99.90
29551;DHT22;16488;52.396;10.696;2023-07-13T00:16:48;15.00;99.90
29551;DHT22;16488;52.396;10.696;2023-07-13T00:19:14;15.00;99.90
29551;DHT22;16488;52.396;10.696;2023-07-13T00:21:40;15.10;99.90
29551;DHT22;16488;52.396;10.696;2023-07-13T00:24:08;15.10;99.90
29551;DHT22;16488;52.396;10.696;2023-07-13T00:26:38;15.10;99.90
29551;DHT22;16488;52.396;10.696;2023-07-13T00:29:04;15.10;99.90
29551;DHT22;16488;52.396;10.696;2023-07-13T00:31:34;15.20;99.90
29551;DHT22;16488;52.396;10.696;2023-07-13T00:34:00;15.20;99.90
29551;DHT22;16488;52.396;10.696;2023-07-13T00:36:25;15.20;99.90
29551;DHT22;16488;52.396;10.696;2023-07-13T00:38:51;15.30;99.90
29551;DHT22;16488;52.396;10.696;2023-07-13T00:41:18;15.40;99.90
29551;DHT22;16488;52.396;10.696;2023-07-13T00:43:43;15.50;99.90
29551;DHT22;16488;52.396;10.696;2023-07-13T00:46:30;15.50;99.90
29551;DHT22;16488;52.396;10.696;2023-07-13T00:49:01;15.50;99.90
29551;DHT22;16488;52.396;10.696;2023-07-13T00:51:31;15.60;99.90
29551;DHT22;16488;52.396;10.696;2023-07-13T00:54:02;15.60;99.90
29551;DHT22;16488;52.396;10.696;2023-07-13T00:56:29;15.60;99.90
29551;DHT22;16488;52.396;10.696;2023-07-13T00:58:55;15.60;99.90
29551;DHT22;16488;52.396;10.696;2023-07-13T01:01:22;15.70;99.90
29551;DHT22;16488;52.396;10.696;2023-07-13T01:03:47;15.70;99.90
29551;DHT22;16488;52.396;10.696;2023-07-13T01:06:13;15.70;99.90
29551;DHT22;16488;52.396;10.696;2023-07-13T01:08:39;15.60;99.90
29551;DHT22;16488;52.396;10.696;2023-07-13T01:11:05;15.60;99.90
29551;DHT22;16488;52.396;10.696;2023-07-13T01:13:31;15.60;99.90
29551;DHT22;16488;52.396;10.696;2023-07-13T01:15:58;15.60;99.90
29551;DHT22;16488;52.396;10.696;2023-07-13T01:18:28;15.60;99.90
29551;DHT22;16488;52.396;10.696;2023-07-13T01:20:58;15.60;99.90
29551;DHT22;16488;52.396;10.696;2023-07-13T01:23:26;15.50;99.90
29551;DHT22;16488;52.396;10.696;2023-07-13T01:25:52;15.60;99.90
29551;DHT22;16488;52.396;10.696;2023-07-13T01:28:19;15.70;99.90
29551;DHT22;16488;52.396;10.696;2023-07-13T01:30:46;15.80;99.90
29551;DHT22;16488;52.396;10.696;2023-07-13T01:33:13;15.80;99.90
29551;DHT22;16488;52.396;10.696;2023-07-13T01:35:39;15.90;99.90
29551;DHT22;16488;52.396;10.696;2023-07-13T01:38:05;16.00;99.90
29551;DHT22;16488;52.396;10.696;2023-07-13T01:40:31;16.00;99.90
29551;DHT22;16488;52.396;10.696;2023-07-13T01:42:58;16.20;99.90
29551;DHT22;16488;52.396;10.696;2023-07-13T01:45:23;16.20;99.90
29551;DHT22;16488;52.396;10.696;2023-07-13T01:47:49;16.20;99.90
29551;DHT22;16488;52.396;10.696;2023-07-13T01:50:15;16.10;99.90
29551;DHT22;16488;52.396;10.696;2023-07-13T01:52:41;16.00;99.90
29551;DHT22;16488;52.396;10.696;2023-07-13T01:55:07;16.00;99.90
29551;DHT22;16488;52.396;10.696;2023-07-13T01:57:32;15.90;99.90
29551;DHT22;16488;52.396;10.696;2023-07-13T01:59:58;15.90;99.90
29551;DHT22;16488;52.396;10.696;2023-07-13T02:02:24;15.80;99.90
29551;DHT22;16488;52.396;10.696;2023-07-13T02:04:50;15.90;99.90
29551;DHT22;16488;52.396;10.696;2023-07-13T02:07:15;15.90;99.90
29551;DHT22;16488;52.396;10.696;2023-07-13T02:09:41;15.80;99.90
29551;DHT22;16488;52.396;10.696;2023-07-13T02:12:07;15.80;99.90
29551;DHT22;16488;52.396;10.696;2023-07-13T02:14:33;15.70;99.90
29551;DHT22;16488;52.396;10.696;2023-07-13T02:16:58;15.70;99.90
29551;DHT22;16488;52.396;10.696;2023-07-13T02:19:24;15.60;99.90
29551;DHT22;16488;52.396;10.696;2023-07-13T02:21:50;15.60;99.90
29551;DHT22;16488;52.396;10.696;2023-07-13T02:24:15;15.50;99.90
29551;DHT22;16488;52.396;10.696;2023-07-13T02:26:43;15.50;99.90
29551;DHT22;16488;52.396;10.696;2023-07-13T02:29:09;15.60;99.90
29551;DHT22;16488;52.396;10.696;2023-07-13T02:31:35;15.60;99.90
29551;DHT22;16488;52.396;10.696;2023-07-13T02:34:01;15.70;99.90
29551;DHT22;16488;52.396;10.696;2023-07-13T02:36:28;15.70;99.90
29551;DHT22;16488;52.396;10.696;2023-07-13T02:38:53;15.70;99.90
29551;DHT22;16488;52.396;10.696;2023-07-13T02:41:19;15.70;99.90
29551;DHT22;16488;52.396;10.696;2023-07-13T02:43:44;15.70;99.90
29551;DHT22;16488;52.396;10.696;2023-07-13T02:46:10;15.70;99.90
29551;DHT22;16488;52.396;10.696;2023-07-13T02:48:37;15.60;99.90
29551;DHT22;16488;52.396;10.696;2023-07-13T02:51:03;15.60;99.90
29551;DHT22;16488;52.396;10.696;2023-07-13T02:53:29;15.50;99.90
29551;DHT22;16488;52.396;10.696;2023-07-13T02:55:55;15.40;99.90
29551;DHT22;16488;52.396;10.696;2023-07-13T02:58:20;15.30;99.90
29551;DHT22;16488;52.396;10.696;2023-07-13T03:00:46;15.30;99.90
29551;DHT22;16488;52.396;10.696;2023-07-13T03:03:13;15.30;99.90
29551;DHT22;16488;52.396;10.696;2023-07-13T03:05:41;15.50;99.90
29551;DHT22;16488;52.396;10.696;2023-07-13T03:08:11;15.60;99.90
29551;DHT22;16488;52.396;10.696;2023-07-13T03:10:37;15.60;99.90
29551;DHT22;16488;52.396;10.696;2023-07-13T03:13:05;15.70;99.90
29551;DHT22;16488;52.396;10.696;2023-07-13T03:15:30;15.80;99.90
29551;DHT22;16488;52.396;10.696;2023-07-13T03:17:56;15.90;99.90
29551;DHT22;16488;52.396;10.696;2023-07-13T03:20:21;15.90;99.90
29551;DHT22;16488;52.396;10.696;2023-07-13T03:22:47;15.90;99.90
29551;DHT22;16488;52.396;10.696;2023-07-13T03:25:12;15.90;99.90
29551;DHT22;16488;52.396;10.696;2023-07-13T03:27:38;15.80;99.90
29551;DHT22;16488;52.396;10.696;2023-07-13T03:30:05;15.80;99.90
29551;DHT22;16488;52.396;10.696;2023-07-13T03:32:31;15.50;99.90
29551;DHT22;16488;52.396;10.696;2023-07-13T03:34:57;15.40;99.90
29551;DHT22;16488;52.396;10.696;2023-07-13T03:37:22;15.20;99.90
29551;DHT22;16488;52.396;10.696;2023-07-13T03:39:49;15.20;99.90
29551;DHT22;16488;52.396;10.696;2023-07-13T03:42:14;15.20;99.90
29551;DHT22;16488;52.396;10.696;2023-07-13T03:44:41;15.20;99.90
29551;DHT22;16488;52.396;10.696;2023-07-13T03:47:07;15.20;99.90
29551;DHT22;16488;52.396;10.696;2023-07-13T03:49:34;15.20;99.90
29551;DHT22;16488;52.396;10.696;2023-07-13T03:52:00;15.10;99.90
29551;DHT22;16488;52.396;10.696;2023-07-13T03:54:26;15.20;99.90
29551;DHT22;16488;52.396;10.696;2023-07-13T03:56:51;15.20;99.90
29551;DHT22;16488;52.396;10.696;2023-07-13T03:59:17;15.30;99.90
29551;DHT22;16488;52.396;10.696;2023-07-13T04:01:43;15.40;99.90
29551;DHT22;16488;52.396;10.696;2023-07-13T04:04:09;15.50;99.90
29551;DHT22;16488;52.396;10.696;2023-07-13T04:06:35;15.60;99.90
29551;DHT22;16488;52.396;10.696;2023-07-13T04:09:01;15.70;99.90
29551;DHT22;16488;52.396;10.696;2023-07-13T04:11:30;15.80;99.90
29551;DHT22;16488;52.396;10.696;2023-07-13T04:13:57;15.90;99.90
29551;DHT22;16488;52.396;10.696;2023-07-13T04:16:23;15.90;99.90
29551;DHT22;16488;52.396;10.696;2023-07-13T04:18:49;16.10;99.90
29551;DHT22;16488;52.396;10.696;2023-07-13T04:21:15;16.10;99.90
29551;DHT22;16488;52.396;10.696;2023-07-13T04:23:41;16.10;99.90
29551;DHT22;16488;52.396;10.696;2023-07-13T04:26:07;16.10;99.90
29551;DHT22;16488;52.396;10.696;2023-07-13T04:28:33;16.20;99.90
29551;DHT22;16488;52.396;10.696;2023-07-13T04:30:59;16.20;99.90
29551;DHT22;16488;52.396;10.696;2023-07-13T04:33:25;16.20;99.90
29551;DHT22;16488;52.396;10.696;2023-07-13T04:35:53;16.20;99.90
29551;DHT22;16488;52.396;10.696;2023-07-13T04:38:20;16.30;99.90
29551;DHT22;16488;52.396;10.696;2023-07-13T04:40:46;16.30;99.90
29551;DHT22;16488;52.396;10.696;2023-07-13T04:43:11;16.30;99.90
29551;DHT22;16488;52.396;10.696;2023-07-13T04:45:37;16.20;99.90
29551;DHT22;16488;52.396;10.696;2023-07-13T04:48:03;16.20;99.90
29551;DHT22;16488;52.396;10.696;2023-07-13T04:50:29;16.20;99.90
29551;DHT22;16488;52.396;10.696;2023-07-13T04:52:54;16.10;99.90
29551;DHT22;16488;52.396;10.696;2023-07-13T04:55:20;16.10;99.90
29551;DHT22;16488;52.396;10.696;2023-07-13T04:57:46;16.10;99.90
29551;DHT22;16488;52.396;10.696;2023-07-13T05:00:13;16.00;99.90
29551;DHT22;16488;52.396;10.696;2023-07-13T05:02:42;16.10;99.90
29551;DHT22;16488;52.396;10.696;2023-07-13T05:05:08;16.20;99.90
29551;DHT22;16488;52.396;10.696;2023-07-13T05:07:34;16.20;99.90
29551;DHT22;16488;52.396;10.696;2023-07-13T05:10:00;16.30;99.90
29551;DHT22;16488;52.396;10.696;2023-07-13T05:12:26;16.30;99.90
29551;DHT22;16488;52.396;10.696;2023-07-13T05:14:52;16.30;99.90
29551;DHT22;16488;52.396;10.696;2023-07-13T05:17:17;16.40;99.90
29551;DHT22;16488;52.396;10.696;2023-07-13T05:19:43;16.50;99.90
29551;DHT22;16488;52.396;10.696;2023-07-13T05:22:08;16.60;99.90
29551;DHT22;16488;52.396;10.696;2023-07-13T05:24:34;16.70;99.90
29551;DHT22;16488;52.396;10.696;2023-07-13T05:27:00;16.80;99.90
29551;DHT22;16488;52.396;10.696;2023-07-13T05:29:25;16.90;99.90
29551;DHT22;16488;52.396;10.696;2023-07-13T05:31:51;17.00;99.90
29551;DHT22;16488;52.396;10.696;2023-07-13T05:34:17;17.10;99.90
29551;DHT22;16488;52.396;10.696;2023-07-13T05:36:43;17.30;99.90
29551;DHT22;16488;52.396;10.696;2023-07-13T05:39:08;17.30;99.90
29551;DHT22;16488;52.396;10.696;2023-07-13T05:41:35;17.30;99.90
29551;DHT22;16488;52.396;10.696;2023-07-13T05:44:00;17.40;99.90
29551;DHT22;16488;52.396;10.696;2023-07-13T05:46:26;17.50;99.90
29551;DHT22;16488;52.396;10.696;2023-07-13T05:48:52;17.50;99.90
29551;DHT22;16488;52.396;10.696;2023-07-13T05:51:18;17.50;99.90
29551;DHT22;16488;52.396;10.696;2023-07-13T05:53:43;17.60;99.90
29551;DHT22;16488;52.396;10.696;2023-07-13T05:56:09;17.70;99.90
29551;DHT22;16488;52.396;10.696;2023-07-13T05:58:35;17.70;99.90
29551;DHT22;16488;52.396;10.696;2023-07-13T06:01:06;17.80;99.90
29551;DHT22;16488;52.396;10.696;2023-07-13T06:03:33;17.90;99.90
29551;DHT22;16488;52.396;10.696;2023-07-13T06:05:58;18.10;99.90
29551;DHT22;16488;52.396;10.696;2023-07-13T06:08:26;18.10;99.90
29551;DHT22;16488;52.396;10.696;2023-07-13T06:10:52;18.10;99.90
29551;DHT22;16488;52.396;10.696;2023-07-13T06:13:18;18.30;99.90
29551;DHT22;16488;52.396;10.696;2023-07-13T06:15:51;18.30;99.90
29551;DHT22;16488;52.396;10.696;2023-07-13T06:18:16;18.20;99.90
29551;DHT22;16488;52.396;10.696;2023-07-13T06:20:42;18.10;99.90
29551;DHT22;16488;52.396;10.696;2023-07-13T06:23:08;18.10;99.90
29551;DHT22;16488;52.396;10.696;2023-07-13T06:25:33;18.20;99.90
29551;DHT22;16488;52.396;10.696;2023-07-13T06:27:59;18.20;99.90
29551;DHT22;16488;52.396;10.696;2023-07-13T06:30:25;18.20;99.90
29551;DHT22;16488;52.396;10.696;2023-07-13T06:32:52;18.40;99.90
29551;DHT22;16488;52.396;10.696;2023-07-13T06:35:18;18.50;99.90
29551;DHT22;16488;52.396;10.696;2023-07-13T06:37:43;18.60;99.90
29551;DHT22;16488;52.396;10.696;2023-07-13T06:40:09;18.60;99.90
29551;DHT22;16488;52.396;10.696;2023-07-13T06:42:35;18.60;99.90
29551;DHT22;16488;52.396;10.696;2023-07-13T06:45:00;18.60;99.90
29551;DHT22;16488;52.396;10.696;2023-07-13T06:47:26;18.80;99.90
29551;DHT22;16488;52.396;10.696;2023-07-13T06:49:52;18.80;99.90
29551;DHT22;16488;52.396;10.696;2023-07-13T06:52:18;18.80;99.90
29551;DHT22;16488;52.396;10.696;2023-07-13T06:54:43;18.70;99.90
29551;DHT22;16488;52.396;10.696;2023-07-13T06:57:09;18.60;99.90
29551;DHT22;16488;52.396;10.696;2023-07-13T06:59:34;18.80;99.90
29551;DHT22;16488;52.396;10.696;2023-07-13T07:02:00;18.80;99.90
29551;DHT22;16488;52.396;10.696;2023-07-13T07:04:26;18.90;99.90
29551;DHT22;16488;52.396;10.696;2023-07-13T07:06:52;19.10;99.90
29551;DHT22;16488;52.396;10.696;2023-07-13T07:09:17;19.20;99.90
29551;DHT22;16488;52.396;10.696;2023-07-13T07:11:43;19.10;99.90
29551;DHT22;16488;52.396;10.696;2023-07-13T07:14:09;19.20;99.90
29551;DHT22;16488;52.396;10.696;2023-07-13T07:16:34;19.30;99.90
29551;DHT22;16488;52.396;10.696;2023-07-13T07:19:00;19.40;99.90
29551;DHT22;16488;52.396;10.696;2023-07-13T07:21:26;19.60;99.90
29551;DHT22;16488;52.396;10.696;2023-07-13T07:23:52;19.60;99.90
29551;DHT22;16488;52.396;10.696;2023-07-13T07:26:18;19.70;99.90
29551;DHT22;16488;52.396;10.696;2023-07-13T07:28:44;19.80;99.90
29551;DHT22;16488;52.396;10.696;2023-07-13T07:31:10;19.90;99.90
29551;DHT22;16488;52.396;10.696;2023-07-13T07:33:35;19.90;99.90
29551;DHT22;16488;52.396;10.696;2023-07-13T07:36:01;20.00;99.90
29551;DHT22;16488;52.396;10.696;2023-07-13T07:38:27;19.90;99.90
29551;DHT22;16488;52.396;10.696;2023-07-13T07:40:53;19.80;99.90
29551;DHT22;16488;52.396;10.696;2023-07-13T07:43:19;19.80;99.90
29551;DHT22;16488;52.396;10.696;2023-07-13T07:45:45;19.90;99.90
29551;DHT22;16488;52.396;10.696;2023-07-13T07:48:11;19.90;99.90
29551;DHT22;16488;52.396;10.696;2023-07-13T07:50:37;19.80;99.90
29551;DHT22;16488;52.396;10.696;2023-07-13T07:53:04;19.70;99.90
29551;DHT22;16488;52.396;10.696;2023-07-13T07:55:33;19.70;99.90
29551;DHT22;16488;52.396;10.696;2023-07-13T07:58:00;19.80;99.90
29551;DHT22;16488;52.396;10.696;2023-07-13T08:00:25;19.90;99.90
29551;DHT22;16488;52.396;10.696;2023-07-13T08:02:52;19.90;99.90
29551;DHT22;16488;52.396;10.696;2023-07-13T08:05:17;20.00;99.90
29551;DHT22;16488;52.396;10.696;2023-07-13T08:07:43;20.00;99.90
29551;DHT22;16488;52.396;10.696;2023-07-13T08:10:09;19.80;99.90
29551;DHT22;16488;52.396;10.696;2023-07-13T08:12:36;19.80;99.90
29551;DHT22;16488;52.396;10.696;2023-07-13T08:15:03;19.60;99.90
29551;DHT22;16488;52.396;10.696;2023-07-13T08:17:28;19.70;99.90
29551;DHT22;16488;52.396;10.696;2023-07-13T08:19:54;19.70;99.90
29551;DHT22;16488;52.396;10.696;2023-07-13T08:22:20;19.80;99.90
29551;DHT22;16488;52.396;10.696;2023-07-13T08:24:46;19.80;99.90
29551;DHT22;16488;52.396;10.696;2023-07-13T08:27:12;19.60;99.90
29551;DHT22;16488;52.396;10.696;2023-07-13T08:29:39;19.60;99.90
29551;DHT22;16488;52.396;10.696;2023-07-13T08:32:06;19.70;99.90
29551;DHT22;16488;52.396;10.696;2023-07-13T08:34:35;19.60;99.90
29551;DHT22;16488;52.396;10.696;2023-07-13T08:37:01;19.90;99.90
29551;DHT22;16488;52.396;10.696;2023-07-13T08:39:27;19.80;99.90
29551;DHT22;16488;52.396;10.696;2023-07-13T08:42:02;20.00;99.90
29551;DHT22;16488;52.396;10.696;2023-07-13T08:47:39;20.00;99.90
29551;DHT22;16488;52.396;10.696;2023-07-13T08:50:11;19.90;99.90
29551;DHT22;16488;52.396;10.696;2023-07-13T08:52:42;19.80;99.90
29551;DHT22;16488;52.396;10.696;2023-07-13T08:57:43;20.00;99.90
29551;DHT22;16488;52.396;10.696;2023-07-13T09:00:11;20.10;99.90
29551;DHT22;16488;52.396;10.696;2023-07-13T09:02:53;20.20;99.90
29551;DHT22;16488;52.396;10.696;2023-07-13T09:05:30;20.10;99.90
29551;DHT22;16488;52.396;10.696;2023-07-13T09:10:49;20.10;99.90
29551;DHT22;16488;52.396;10.696;2023-07-13T09:13:23;20.30;99.90
29551;DHT22;16488;52.396;10.696;2023-07-13T09:15:52;20.20;99.90
29551;DHT22;16488;52.396;10.696;2023-07-13T09:20:57;20.10;99.90
29551;DHT22;16488;52.396;10.696;2023-07-13T09:23:27;20.10;99.90
29551;DHT22;16488;52.396;10.696;2023-07-13T09:28:30;20.00;99.90
29551;DHT22;16488;52.396;10.696;2023-07-13T09:31:03;20.00;99.90
29551;DHT22;16488;52.396;10.696;2023-07-13T09:33:31;19.80;99.90
29551;DHT22;16488;52.396;10.696;2023-07-13T09:36:00;19.90;99.90
29551;DHT22;16488;52.396;10.696;2023-07-13T09:38:28;20.10;99.90
29551;DHT22;16488;52.396;10.696;2023-07-13T09:43:37;20.40;99.90
29551;DHT22;16488;52.396;10.696;2023-07-13T09:46:03;20.50;99.90
29551;DHT22;16488;52.396;10.696;2023-07-13T09:48:35;20.50;99.90
29551;DHT22;16488;52.396;10.696;2023-07-13T09:51:13;20.30;99.90
29551;DHT22;16488;52.396;10.696;2023-07-13T09:53:42;20.20;99.90
29551;DHT22;16488;52.396;10.696;2023-07-13T09:56:22;20.20;99.90
29551;DHT22;16488;52.396;10.696;2023-07-13T09:58:48;20.30;99.90
29551;DHT22;16488;52.396;10.696;2023-07-13T10:01:14;20.30;99.90
29551;DHT22;16488;52.396;10.696;2023-07-13T10:03:54;20.40;99.90
29551;DHT22;16488;52.396;10.696;2023-07-13T10:06:21;20.50;99.90
29551;DHT22;16488;52.396;10.696;2023-07-13T10:08:51;20.40;99.90
29551;DHT22;16488;52.396;10.696;2023-07-13T10:16:16;20.50;99.90
29551;DHT22;16488;52.396;10.696;2023-07-13T10:21:19;20.80;99.90
29551;DHT22;16488;52.396;10.696;2023-07-13T10:23:55;20.70;99.90
29551;DHT22;16488;52.396;10.696;2023-07-13T10:26:29;20.90;99.90
29551;DHT22;16488;52.396;10.696;2023-07-13T10:28:59;21.00;99.90
29551;DHT22;16488;52.396;10.696;2023-07-13T10:31:26;21.10;99.90
29551;DHT22;16488;52.396;10.696;2023-07-13T10:33:52;21.20;99.90
29551;DHT22;16488;52.396;10.696;2023-07-13T10:38:57;21.10;99.90
29551;DHT22;16488;52.396;10.696;2023-07-13T10:41:26;21.00;99.90
29551;DHT22;16488;52.396;10.696;2023-07-13T10:43:55;20.90;99.90
29551;DHT22;16488;52.396;10.696;2023-07-13T10:46:24;20.70;99.90
29551;DHT22;16488;52.396;10.696;2023-07-13T10:49:02;20.80;99.90
29551;DHT22;16488;52.396;10.696;2023-07-13T10:51:30;20.70;99.90
29551;DHT22;16488;52.396;10.696;2023-07-13T10:54:16;20.60;99.90
29551;DHT22;16488;52.396;10.696;2023-07-13T10:56:42;20.40;99.90
29551;DHT22;16488;52.396;10.696;2023-07-13T11:04:40;20.60;99.90
29551;DHT22;16488;52.396;10.696;2023-07-13T11:07:31;20.80;99.90
29551;DHT22;16488;52.396;10.696;2023-07-13T11:10:46;21.00;99.90
29551;DHT22;16488;52.396;10.696;2023-07-13T11:18:49;21.60;99.90
29551;DHT22;16488;52.396;10.696;2023-07-13T11:21:19;21.70;99.90
29551;DHT22;16488;52.396;10.696;2023-07-13T11:23:53;21.70;99.90
29551;DHT22;16488;52.396;10.696;2023-07-13T11:26:42;21.50;99.90
29551;DHT22;16488;52.396;10.696;2023-07-13T11:31:59;21.30;99.90
29551;DHT22;16488;52.396;10.696;2023-07-13T11:34:33;21.40;99.90
29551;DHT22;16488;52.396;10.696;2023-07-13T11:37:01;21.50;99.90
29551;DHT22;16488;52.396;10.696;2023-07-13T11:39:33;21.70;99.90
29551;DHT22;16488;52.396;10.696;2023-07-13T11:42:05;21.80;99.90
29551;DHT22;16488;52.396;10.696;2023-07-13T11:44:33;22.20;99.90
29551;DHT22;16488;52.396;10.696;2023-07-13T11:47:10;22.30;99.90
29551;DHT22;16488;52.396;10.696;2023-07-13T11:49:44;22.30;99.90
29551;DHT22;16488;52.396;10.696;2023-07-13T11:52:15;22.40;99.90
29551;DHT22;16488;52.396;10.696;2023-07-13T11:54:57;22.50;99.60
29551;DHT22;16488;52.396;10.696;2023-07-13T12:00:02;22.10;99.30
29551;DHT22;16488;52.396;10.696;2023-07-13T12:02:34;22.00;99.60
29551;DHT22;16488;52.396;10.696;2023-07-13T12:05:02;22.20;99.80
29551;DHT22;16488;52.396;10.696;2023-07-13T12:07:31;22.40;99.90
29551;DHT22;16488;52.396;10.696;2023-07-13T12:10:03;22.50;98.80
29551;DHT22;16488;52.396;10.696;2023-07-13T12:12:36;22.60;98.90
29551;DHT22;16488;52.396;10.696;2023-07-13T12:15:06;22.70;99.60
29551;DHT22;16488;52.396;10.696;2023-07-13T12:17:34;22.70;96.90
29551;DHT22;16488;52.396;10.696;2023-07-13T12:20:03;22.70;97.00
29551;DHT22;16488;52.396;10.696;2023-07-13T12:22:32;22.80;96.60
29551;DHT22;16488;52.396;10.696;2023-07-13T12:24:59;22.90;95.50
29551;DHT22;16488;52.396;10.696;2023-07-13T12:27:27;23.20;95.40
29551;DHT22;16488;52.396;10.696;2023-07-13T12:30:02;23.10;95.30
29551;DHT22;16488;52.396;10.696;2023-07-13T12:32:31;23.10;95.10
29551;DHT22;16488;52.396;10.696;2023-07-13T12:35:17;22.90;95.60
29551;DHT22;16488;52.396;10.696;2023-07-13T12:37:45;22.70;95.40
29551;DHT22;16488;52.396;10.696;2023-07-13T12:40:19;22.60;95.30
29551;DHT22;16488;52.396;10.696;2023-07-13T12:42:49;22.50;95.10
29551;DHT22;16488;52.396;10.696;2023-07-13T12:45:21;22.70;94.70
29551;DHT22;16488;52.396;10.696;2023-07-13T12:47:53;22.50;94.40
29551;DHT22;16488;52.396;10.696;2023-07-13T12:50:22;22.30;94.80
29551;DHT22;16488;52.396;10.696;2023-07-13T12:52:53;22.30;94.80
29551;DHT22;16488;52.396;10.696;2023-07-13T12:55:20;22.30;95.30
29551;DHT22;16488;52.396;10.696;2023-07-13T12:57:53;22.30;95.90
29551;DHT22;16488;52.396;10.696;2023-07-13T13:02:49;22.40;94.70
29551;DHT22;16488;52.396;10.696;2023-07-13T13:05:16;22.30;95.10
29551;DHT22;16488;52.396;10.696;2023-07-13T13:07:41;22.40;95.80
29551;DHT22;16488;52.396;10.696;2023-07-13T13:10:14;22.40;95.30
29551;DHT22;16488;52.396;10.696;2023-07-13T13:12:40;22.50;95.50
29551;DHT22;16488;52.396;10.696;2023-07-13T13:15:10;22.70;96.40
29551;DHT22;16488;52.396;10.696;2023-07-13T13:17:37;23.10;94.80
29551;DHT22;16488;52.396;10.696;2023-07-13T13:20:20;23.30;94.10
29551;DHT22;16488;52.396;10.696;2023-07-13T13:22:46;23.10;93.40
29551;DHT22;16488;52.396;10.696;2023-07-13T13:25:13;22.80;93.30
29551;DHT22;16488;52.396;10.696;2023-07-13T13:27:41;22.80;94.60
29551;DHT22;16488;52.396;10.696;2023-07-13T13:30:15;22.90;94.70
29551;DHT22;16488;52.396;10.696;2023-07-13T13:32:43;23.00;94.50
29551;DHT22;16488;52.396;10.696;2023-07-13T13:35:19;23.30;94.00
29551;DHT22;16488;52.396;10.696;2023-07-13T13:37:46;23.20;92.90
29551;DHT22;16488;52.396;10.696;2023-07-13T13:40:19;23.10;93.50
29551;DHT22;16488;52.396;10.696;2023-07-13T13:42:45;23.00;92.80
29551;DHT22;16488;52.396;10.696;2023-07-13T13:45:12;22.90;93.20
29551;DHT22;16488;52.396;10.696;2023-07-13T13:47:44;23.10;94.30
29551;DHT22;16488;52.396;10.696;2023-07-13T13:50:15;23.40;94.00
29551;DHT22;16488;52.396;10.696;2023-07-13T13:52:42;23.60;92.90
29551;DHT22;16488;52.396;10.696;2023-07-13T13:55:19;23.60;92.60
29551;DHT22;16488;52.396;10.696;2023-07-13T13:57:46;23.70;91.60
29551;DHT22;16488;52.396;10.696;2023-07-13T14:00:12;23.60;92.80
29551;DHT22;16488;52.396;10.696;2023-07-13T14:02:41;23.30;93.40
29551;DHT22;16488;52.396;10.696;2023-07-13T14:05:10;23.10;93.40
29551;DHT22;16488;52.396;10.696;2023-07-13T14:07:37;22.90;94.70
29551;DHT22;16488;52.396;10.696;2023-07-13T14:10:11;22.70;94.50
29551;DHT22;16488;52.396;10.696;2023-07-13T14:12:38;22.60;95.10
29551;DHT22;16488;52.396;10.696;2023-07-13T14:15:04;22.50;95.60
29551;DHT22;16488;52.396;10.696;2023-07-13T14:17:30;22.40;96.30
29551;DHT22;16488;52.396;10.696;2023-07-13T14:19:56;22.40;96.40
29551;DHT22;16488;52.396;10.696;2023-07-13T14:22:25;22.30;96.50
29551;DHT22;16488;52.396;10.696;2023-07-13T14:24:52;21.40;98.60
29551;DHT22;16488;52.396;10.696;2023-07-13T14:27:18;20.70;99.90
29551;DHT22;16488;52.396;10.696;2023-07-13T14:29:44;20.00;99.90
29551;DHT22;16488;52.396;10.696;2023-07-13T14:32:11;19.50;99.90
29551;DHT22;16488;52.396;10.696;2023-07-13T14:34:38;19.00;99.90
29551;DHT22;16488;52.396;10.696;2023-07-13T14:37:04;18.70;99.90
29551;DHT22;16488;52.396;10.696;2023-07-13T14:39:31;18.60;99.90
29551;DHT22;16488;52.396;10.696;2023-07-13T14:41:58;18.50;99.90
29551;DHT22;16488;52.396;10.696;2023-07-13T14:44:29;18.30;99.90
29551;DHT22;16488;52.396;10.696;2023-07-13T14:46:57;18.20;99.90
29551;DHT22;16488;52.396;10.696;2023-07-13T14:51:52;18.30;99.90
29551;DHT22;16488;52.396;10.696;2023-07-13T14:54:18;18.40;99.90
29551;DHT22;16488;52.396;10.696;2023-07-13T14:56:43;18.40;99.90
29551;DHT22;16488;52.396;10.696;2023-07-13T14:59:09;18.30;99.90
29551;DHT22;16488;52.396;10.696;2023-07-13T15:01:36;18.30;99.90
29551;DHT22;16488;52.396;10.696;2023-07-13T15:04:02;18.20;99.90
29551;DHT22;16488;52.396;10.696;2023-07-13T15:06:29;18.30;99.90
29551;DHT22;16488;52.396;10.696;2023-07-13T15:08:57;18.30;99.90
29551;DHT22;16488;52.396;10.696;2023-07-13T15:11:22;18.30;99.90
29551;DHT22;16488;52.396;10.696;2023-07-13T15:13:48;18.30;99.90
29551;DHT22;16488;52.396;10.696;2023-07-13T15:16:25;18.40;99.90
29551;DHT22;16488;52.396;10.696;2023-07-13T15:18:51;18.70;99.90
29551;DHT22;16488;52.396;10.696;2023-07-13T15:21:21;18.90;99.90
29551;DHT22;16488;52.396;10.696;2023-07-13T15:23:48;18.90;99.90
29551;DHT22;16488;52.396;10.696;2023-07-13T15:26:15;18.80;99.90
29551;DHT22;16488;52.396;10.696;2023-07-13T15:28:44;18.80;99.90
29551;DHT22;16488;52.396;10.696;2023-07-13T15:31:22;18.80;99.90
29551;DHT22;16488;52.396;10.696;2023-07-13T15:33:49;18.60;99.90
29551;DHT22;16488;52.396;10.696;2023-07-13T15:36:20;18.50;99.90
29551;DHT22;16488;52.396;10.696;2023-07-13T15:38:47;18.50;99.90
29551;DHT22;16488;52.396;10.696;2023-07-13T15:41:25;18.30;99.90
29551;DHT22;16488;52.396;10.696;2023-07-13T15:43:53;18.30;99.90
29551;DHT22;16488;52.396;10.696;2023-07-13T15:46:20;18.40;99.90
29551;DHT22;16488;52.396;10.696;2023-07-13T15:48:48;18.40;99.90
29551;DHT22;16488;52.396;10.696;2023-07-13T15:51:32;18.40;99.90
29551;DHT22;16488;52.396;10.696;2023-07-13T15:54:01;18.30;99.90
29551;DHT22;16488;52.396;10.696;2023-07-13T15:56:35;18.40;99.90
29551;DHT22;16488;52.396;10.696;2023-07-13T15:59:02;18.50;99.90
29551;DHT22;16488;52.396;10.696;2023-07-13T16:01:29;18.70;99.90
29551;DHT22;16488;52.396;10.696;2023-07-13T16:03:55;18.70;99.90
29551;DHT22;16488;52.396;10.696;2023-07-13T16:06:28;18.70;99.90
29551;DHT22;16488;52.396;10.696;2023-07-13T16:08:54;18.60;99.90